Keewatin, Canada
Current Conditions -  °F | °C
As of 4:00 PM on Wednesday 28 Jan 2015 (Local Time) from CYQK Reporting Station
Light Snow Light Snow  
Wind Chill: 27°   Ceiling: 200
Heat Index: 27°   Visibility: 2.5mi
Dew Point: 27°   Wind: 0mph
Humidity: 100%   Direction: NA
Pressure: 29.79"   Gusts: NA
Location:  49.76°N, 94.56°W
Report Text: CYQK 282200Z 00000KT 2 1/2SM -FZDZ -SN BR BKN002 OVC007 M03/M03 A2979 RMK SF5SF3 -FZDZ INTMT SLP111
Loading
Personal Weather Stations






























Interactive Weather Map New forecast layout! Learn more

10-Day Weather Forecast

Advertisements
Track Severe Weather on mobile